Time;durP1;ratioP1;P1;durP2;ratioP2;P2;SDS_P1;SDS_P2;PMS_P1;PMS_P2;Temp;Humidity;BMP_temperature;BMP_pressure;BME280_temperature;BME280_humidity;BME280_pressure;Samples;Min_cycle;Max_cycle;Signal;HPM_P1;HPM_P2
2021/12/05 00:23:12;;;;;;;9.73;2.23;;;4.10;99.90;;;4.52;100.00;96725.59;5002297;28;20454;-79
2021/12/05 00:25:46;;;;;;;9.63;2.43;;;4.10;99.90;;;4.52;100.00;96728.19;5006363;28;20497;-79
2021/12/05 00:42:46;;;;;;;8.30;2.23;;;3.90;99.90;;;4.55;100.00;96727.81;5046175;28;20525;-78
2021/12/05 00:48:40;;;;;;;4.70;1.77;;;3.90;99.90;;;4.53;100.00;96732.38;5037036;28;20449;-79
2021/12/05 00:57:05;;;;;;;11.23;2.37;;;3.80;99.90;;;4.54;100.00;96728.00;5048107;28;21023;-79
2021/12/05 00:59:45;;;;;;;12.23;2.23;;;3.90;99.90;;;4.53;100.00;96729.81;5037618;28;20444;-79
2021/12/05 01:05:24;;;;;;;17.57;1.97;;;4.10;99.90;;;4.48;100.00;96724.34;5033799;28;20474;-78
2021/12/05 01:08:06;;;;;;;3.90;1.87;;;3.90;99.90;;;4.44;100.00;96717.94;5038931;28;20473;-79
2021/12/05 01:10:54;;;;;;;4.70;1.97;;;3.90;99.90;;;4.43;100.00;96729.28;5042186;28;20520;-78
2021/12/05 01:13:35;;;;;;;7.57;2.00;;;4.00;99.90;;;4.42;100.00;96735.44;5040813;28;20827;-79
2021/12/05 01:16:08;;;;;;;5.23;1.90;;;4.00;99.90;;;4.41;100.00;96726.06;5043569;28;20526;-79
2021/12/05 01:18:38;;;;;;;10.40;2.13;;;3.90;99.90;;;4.44;100.00;96738.63;5040989;28;20841;-79
2021/12/05 01:21:18;;;;;;;4.20;1.73;;;4.00;99.90;;;4.46;100.00;96736.69;5045879;28;20467;-78
2021/12/05 01:24:13;;;;;;;9.07;2.13;;;3.90;99.90;;;4.46;100.00;96739.28;5040188;28;20461;-79
2021/12/05 01:26:48;;;;;;;7.07;2.03;;;4.00;99.90;;;4.40;100.00;96741.78;5039895;28;20496;-79
2021/12/05 01:29:30;;;;;;;5.43;2.03;;;3.90;99.90;;;4.41;100.00;96741.59;5043230;28;20835;-79
2021/12/05 01:32:10;;;;;;;14.97;2.20;;;3.90;99.90;;;4.42;100.00;96744.97;5040213;28;20976;-79
2021/12/05 01:34:50;;;;;;;11.37;2.23;;;3.90;99.90;;;4.43;100.00;96747.41;5044206;28;20534;-78
2021/12/05 01:37:28;;;;;;;4.37;1.70;;;3.80;99.90;;;4.44;100.00;96756.75;5044152;28;20464;-79
2021/12/05 01:40:24;;;;;;;10.90;2.00;;;4.00;99.90;;;4.43;100.00;96749.97;5038922;28;20531;-79
2021/12/05 01:52:15;;;;;;;7.33;2.50;;;4.00;99.90;;;4.45;100.00;96757.56;4997959;28;20546;-78
2021/12/05 02:08:57;;;;;;;11.23;2.23;;;3.90;99.90;;;4.40;100.00;96734.81;5044734;28;20522;-79
2021/12/05 02:11:55;;;;;;;3.43;1.70;;;3.90;99.90;;;4.42;100.00;96735.44;5045203;28;20470;-79
2021/12/05 02:31:45;;;;;;;3.87;1.77;;;3.90;99.90;;;4.43;100.00;96716.34;5043360;28;20463;-79
2021/12/05 02:34:28;;;;;;;3.10;1.90;;;3.90;99.90;;;4.39;100.00;96716.88;5042785;28;20470;-78
2021/12/05 02:39:55;;;;;;;2.03;1.67;;;3.80;99.90;;;4.41;100.00;96722.66;5035271;28;20491;-78
2021/12/05 02:42:31;;;;;;;4.13;1.70;;;3.80;99.90;;;4.43;100.00;96720.72;5037502;28;20921;-78
2021/12/05 02:45:01;;;;;;;6.40;1.60;;;3.90;99.90;;;4.41;100.00;96726.06;5031634;28;20461;-78
2021/12/05 02:47:30;;;;;;;7.80;1.90;;;4.00;99.90;;;4.39;100.00;96722.84;5032540;28;20556;-79
2021/12/05 02:50:08;;;;;;;4.50;2.00;;;3.90;99.90;;;4.44;100.00;96717.94;5040753;28;20464;-78
2021/12/05 02:52:42;;;;;;;4.07;1.63;;;3.90;99.90;;;4.45;100.00;96714.38;5034678;28;20463;-79
2021/12/05 02:55:22;;;;;;;2.10;1.43;;;4.00;99.90;;;4.44;100.00;96719.75;5035600;28;20483;-78
2021/12/05 02:57:56;;;;;;;6.77;1.83;;;4.00;99.90;;;4.44;100.00;96715.34;5034262;28;20468;-79
2021/12/05 03:00:38;;;;;;;3.20;1.50;;;3.90;99.90;;;4.46;100.00;96715.97;5044832;28;21730;-79
2021/12/05 03:03:18;;;;;;;3.13;1.80;;;4.00;99.90;;;4.45;100.00;96710.97;5044422;28;20501;-78
2021/12/05 03:05:54;;;;;;;3.77;2.00;;;3.90;99.90;;;4.46;100.00;96703.03;5033555;28;20456;-79
2021/12/05 03:08:24;;;;;;;3.90;2.00;;;3.90;99.90;;;4.48;100.00;96706.22;5039649;28;20987;-79
2021/12/05 03:10:57;;;;;;;5.90;1.60;;;3.80;99.90;;;4.49;100.00;96701.88;5041276;28;20469;-79
2021/12/05 03:13:26;;;;;;;5.83;2.00;;;3.90;99.90;;;4.47;100.00;96701.25;5019432;28;20516;-79
2021/12/05 03:15:58;;;;;;;4.77;2.17;;;3.80;99.90;;;4.47;100.00;96694.31;5039955;28;20561;-78
2021/12/05 03:18:27;;;;;;;4.60;1.60;;;3.90;99.90;;;4.45;100.00;96696.25;5039147;28;20542;-79
2021/12/05 03:20:58;;;;;;;4.67;1.43;;;3.80;99.90;;;4.45;100.00;96690.28;5043998;28;20800;-79
2021/12/05 03:23:29;;;;;;;2.23;1.40;;;3.90;99.90;;;4.45;100.00;96695.44;5042810;28;20460;-78
2021/12/05 03:25:58;;;;;;;4.03;1.70;;;3.90;99.90;;;4.43;100.00;96685.28;5043384;28;21049;-78
2021/12/05 03:28:27;;;;;;;6.70;1.60;;;3.90;99.90;;;4.41;100.00;96689.03;5038822;28;20457;-78
2021/12/05 03:30:56;;;;;;;3.93;1.50;;;3.90;99.90;;;4.35;100.00;96689.75;5040364;28;20455;-79
2021/12/05 03:33:25;;;;;;;4.10;1.70;;;3.70;99.90;;;4.36;100.00;96689.59;5037867;28;20476;-79
2021/12/05 03:35:54;;;;;;;3.70;1.50;;;3.70;99.90;;;4.29;100.00;96691.28;5046667;28;20468;-78
2021/12/05 03:38:22;;;;;;;7.50;2.00;;;3.60;99.90;;;4.27;100.00;96680.31;5042493;28;20491;-79
2021/12/05 03:40:52;;;;;;;4.47;1.27;;;3.60;99.90;;;4.25;100.00;96673.72;5037826;28;20941;-78
2021/12/05 03:43:21;;;;;;;3.93;1.70;;;3.70;99.90;;;4.26;100.00;96683.09;5038400;28;20655;-78
2021/12/05 03:45:56;;;;;;;2.60;1.33;;;3.70;99.90;;;4.25;100.00;96676.31;5035325;28;20478;-78
2021/12/05 03:48:30;;;;;;;4.77;1.50;;;3.60;99.90;;;4.26;100.00;96673.56;5036958;28;20955;-78
2021/12/05 03:51:01;;;;;;;2.40;1.50;;;3.60;99.90;;;4.19;100.00;96674.44;5034932;28;20470;-79
2021/12/05 03:53:30;;;;;;;3.00;1.70;;;3.70;99.90;;;4.17;100.00;96676.41;5041040;28;21039;-79
2021/12/05 03:56:04;;;;;;;4.83;1.80;;;3.60;99.90;;;4.12;100.00;96676.97;5041261;28;20451;-78
2021/12/05 03:58:33;;;;;;;5.90;1.40;;;3.60;99.90;;;4.16;100.00;96667.88;5035134;28;20529;-78
2021/12/05 04:01:04;;;;;;;2.37;1.37;;;3.60;99.90;;;4.16;100.00;96670.44;5040133;28;21026;-79
2021/12/05 04:03:36;;;;;;;2.33;1.43;;;3.60;99.90;;;4.15;100.00;96666.25;5037570;28;20959;-78
2021/12/05 04:06:07;;;;;;;1.47;1.37;;;3.60;99.90;;;4.16;100.00;96662.69;5043857;28;21145;-78
2021/12/05 04:08:39;;;;;;;4.70;1.70;;;3.70;99.90;;;4.05;100.00;96660.56;5038478;28;21164;-78
2021/12/05 04:11:14;;;;;;;1.27;1.17;;;3.50;99.90;;;4.05;100.00;96658.78;5043558;28;20507;-79
2021/12/05 04:13:45;;;;;;;3.70;1.23;;;3.40;99.90;;;4.09;100.00;96666.19;5041841;28;20469;-78
2021/12/05 04:16:15;;;;;;;3.23;1.70;;;3.30;99.90;;;4.10;100.00;96660.00;5039048;28;20463;-78
2021/12/05 04:18:47;;;;;;;2.40;1.20;;;3.60;99.90;;;4.12;100.00;96664.03;5044206;28;20461;-79
2021/12/05 04:21:18;;;;;;;2.13;1.10;;;3.50;99.90;;;4.10;100.00;96655.63;5039506;28;20462;-79
2021/12/05 04:23:48;;;;;;;4.30;1.50;;;3.50;99.90;;;4.12;100.00;96653.69;5037942;28;20912;-79
2021/12/05 04:26:19;;;;;;;1.70;1.57;;;3.40;99.90;;;4.11;100.00;96646.91;5044074;28;20455;-78
2021/12/05 04:28:48;;;;;;;1.30;1.10;;;3.40;99.90;;;4.11;100.00;96646.91;5045336;28;20473;-78
2021/12/05 04:31:20;;;;;;;1.33;1.20;;;3.40;99.90;;;4.12;100.00;96647.72;5044720;28;20465;-79
2021/12/05 04:33:50;;;;;;;1.33;1.10;;;3.40;99.90;;;4.13;100.00;96651.91;5049323;28;20542;-78
2021/12/05 04:36:20;;;;;;;2.53;1.33;;;3.50;99.90;;;4.07;100.00;96651.63;5042183;28;20469;-78
2021/12/05 04:38:49;;;;;;;1.10;1.00;;;3.60;99.90;;;4.05;100.00;96642.47;5042591;28;20502;-78
2021/12/05 04:41:19;;;;;;;3.20;1.60;;;3.60;99.90;;;4.04;100.00;96646.00;5041820;28;20545;-79
2021/12/05 04:43:48;;;;;;;2.30;1.40;;;3.40;99.90;;;4.03;100.00;96645.22;5040534;28;20485;-79
2021/12/05 04:46:23;;;;;;;1.20;1.10;;;3.30;99.90;;;4.03;100.00;96642.63;5047973;28;20488;-79
2021/12/05 04:48:56;;;;;;;2.70;0.97;;;3.30;99.90;;;4.01;100.00;96642.03;5037127;28;20470;-78
2021/12/05 04:51:31;;;;;;;2.27;1.13;;;3.40;99.90;;;4.01;100.00;96642.03;5039134;28;20508;-78
2021/12/05 04:54:01;;;;;;;1.60;1.17;;;3.20;99.90;;;4.01;100.00;96641.22;5044641;28;20455;-78
2021/12/05 04:56:33;;;;;;;8.63;1.57;;;3.20;99.90;;;4.00;100.00;96637.00;5042809;28;20456;-79
2021/12/05 04:59:11;;;;;;;1.60;1.10;;;3.20;99.90;;;3.98;100.00;96632.03;5042583;28;20456;-79
2021/12/05 05:01:41;;;;;;;1.50;1.40;;;3.10;99.90;;;4.00;100.00;96631.84;5037401;28;20448;-78
2021/12/05 05:04:19;;;;;;;1.57;1.27;;;3.30;99.90;;;4.00;100.00;96624.09;5046840;28;20449;-78
2021/12/05 05:06:48;;;;;;;1.70;1.33;;;3.30;99.90;;;3.99;100.00;96633.63;5049171;28;20528;-79
2021/12/05 05:09:16;;;;;;;6.00;1.50;;;3.30;99.90;;;3.98;100.00;96632.03;5044877;28;20479;-78
2021/12/05 05:11:47;;;;;;;2.13;1.33;;;3.40;99.90;;;3.98;100.00;96636.41;5040443;28;20467;-78
2021/12/05 05:14:16;;;;;;;7.33;1.90;;;3.40;99.90;;;3.97;100.00;96632.19;5040238;28;20851;-78
2021/12/05 05:16:47;;;;;;;6.83;1.30;;;3.30;99.90;;;3.99;100.00;96633.63;5045602;28;21025;-79
2021/12/05 05:19:18;;;;;;;1.47;1.10;;;3.40;99.90;;;3.99;100.00;96635.44;5040227;28;21001;-79
2021/12/05 05:21:51;;;;;;;1.20;1.00;;;3.40;99.90;;;3.99;100.00;96640.59;5034149;28;20841;-78
2021/12/05 05:44:06;;;;;;;4.50;1.30;;;3.30;99.90;;;4.00;100.00;96668.84;5123577;27;20976;-79
2021/12/05 05:46:50;;;;;;;1.57;0.97;;;3.30;99.90;;;4.01;100.00;96673.06;5105071;28;20449;-79
2021/12/05 05:49:22;;;;;;;2.80;1.00;;;3.40;99.90;;;4.05;100.00;96676.06;5101340;28;20925;-79
2021/12/05 05:51:51;;;;;;;2.50;0.97;;;3.40;99.90;;;4.06;100.00;96669.94;5097584;28;20467;-79
2021/12/05 05:54:20;;;;;;;1.30;1.00;;;3.40;99.90;;;4.06;100.00;96675.09;5096515;28;20536;-78
2021/12/05 05:56:54;;;;;;;1.40;1.03;;;3.40;99.90;;;4.06;100.00;96675.09;5103719;28;20546;-78
2021/12/05 05:59:27;;;;;;;1.63;1.20;;;3.40;99.90;;;4.07;100.00;96676.69;5098291;28;20504;-78
2021/12/05 06:04:42;;;;;;;1.67;1.00;;;3.50;99.90;;;4.08;100.00;96673.13;5071367;28;20465;-79
2021/12/05 06:07:11;;;;;;;2.57;1.17;;;3.50;99.90;;;4.10;100.00;96675.50;5100727;28;21004;-78
2021/12/05 06:09:40;;;;;;;1.87;1.10;;;3.50;99.90;;;4.12;100.00;96671.78;5100557;28;20516;-79
2021/12/05 06:12:09;;;;;;;1.63;1.27;;;3.40;99.90;;;4.14;100.00;96674.19;5096414;28;20973;-79
2021/12/05 06:14:39;;;;;;;1.30;1.03;;;3.50;99.90;;;4.07;100.00;96677.50;5095853;28;20530;-78
2021/12/05 06:17:08;;;;;;;1.10;0.97;;;3.50;99.90;;;4.09;100.00;96685.09;5103163;28;20493;-79
2021/12/05 06:19:36;;;;;;;0.80;0.80;;;3.50;99.90;;;4.12;100.00;96682.13;5101421;28;20508;-78
2021/12/05 06:22:05;;;;;;;4.10;1.23;;;3.50;99.90;;;4.13;100.00;96678.53;5096507;28;20493;-78
2021/12/05 06:24:33;;;;;;;1.50;1.40;;;3.50;99.90;;;4.13;100.00;96678.53;5102474;28;20460;-79
2021/12/05 06:27:02;;;;;;;5.33;1.50;;;3.50;99.90;;;4.15;100.00;96684.34;5100496;28;20464;-79
2021/12/05 06:29:36;;;;;;;1.47;1.00;;;3.50;99.90;;;4.14;100.00;96677.56;5096399;28;20452;-79
2021/12/05 06:32:38;;;;;;;1.50;1.03;;;3.60;99.90;;;4.14;100.00;96674.19;5097764;28;20473;-79
2021/12/05 06:38:07;;;;;;;6.53;1.07;;;3.60;99.90;;;4.15;100.00;96681.78;5080527;28;20823;-79
2021/12/05 06:40:51;;;;;;;6.43;1.10;;;3.70;99.90;;;4.15;100.00;96678.38;5079338;28;20487;-78
2021/12/05 06:46:15;;;;;;;2.70;1.20;;;3.50;99.90;;;4.14;100.00;96672.41;5080215;28;20457;-79
2021/12/05 06:48:48;;;;;;;0.90;0.90;;;3.50;99.90;;;4.13;100.00;96670.78;5087826;28;20481;-78
2021/12/05 06:51:21;;;;;;;1.10;1.00;;;3.40;99.90;;;4.13;100.00;96668.19;5082681;28;20869;-78
2021/12/05 06:53:49;;;;;;;1.20;1.10;;;3.40;99.90;;;4.12;100.00;96671.78;5068896;28;20459;-79
2021/12/05 06:56:18;;;;;;;1.53;1.03;;;3.50;99.90;;;4.11;100.00;96666.78;5056907;28;20472;-76
2021/12/05 06:58:49;;;;;;;4.10;2.27;;;3.60;99.90;;;4.06;100.00;96667.34;5062876;28;20471;-78
2021/12/05 07:01:18;;;;;;;3.30;1.30;;;3.60;99.90;;;4.06;100.00;96675.09;5064508;28;20584;-79
2021/12/05 07:03:50;;;;;;;2.20;1.10;;;3.50;99.90;;;4.05;100.00;96671.72;5061637;28;20509;-78
2021/12/05 07:06:22;;;;;;;1.37;1.27;;;3.50;99.90;;;4.07;100.00;96672.31;5067787;28;20470;-79
2021/12/05 07:08:53;;;;;;;4.40;1.20;;;3.60;99.90;;;4.07;100.00;96679.28;5067874;28;20471;-78
2021/12/05 07:11:26;;;;;;;5.73;1.33;;;3.60;99.90;;;4.05;100.00;96683.84;5070108;28;20459;-78
2021/12/05 07:16:49;;;;;;;3.90;2.10;;;3.50;99.90;;;3.98;100.00;96685.53;5062694;28;20983;-78
2021/12/05 07:19:37;;;;;;;2.00;1.60;;;3.50;99.90;;;3.98;100.00;96686.34;5061138;28;20853;-79
2021/12/05 07:22:16;;;;;;;1.53;1.43;;;3.40;99.90;;;3.98;100.00;96688.94;5061011;28;20518;-78
2021/12/05 07:24:48;;;;;;;1.40;1.30;;;3.40;99.90;;;4.01;100.00;96690.34;5058985;28;20454;-78
2021/12/05 07:41:33;;;;;;;1.80;1.70;;;3.30;99.90;;;4.01;100.00;96696.31;5057628;28;20466;-79
2021/12/05 07:44:02;;;;;;;4.70;1.87;;;3.30;99.90;;;4.01;100.00;96698.09;5063767;28;20555;-78
2021/12/05 07:46:36;;;;;;;2.23;1.77;;;3.20;99.90;;;4.02;100.00;96694.53;5067228;28;20965;-79
2021/12/05 07:49:10;;;;;;;3.57;2.43;;;3.30;99.90;;;4.03;100.00;96693.53;5063393;28;20452;-79
2021/12/05 07:51:45;;;;;;;4.20;2.40;;;3.30;99.90;;;4.01;100.00;96691.16;5072473;28;20444;-79
2021/12/05 07:54:27;;;;;;;5.23;2.47;;;3.30;99.90;;;4.03;100.00;96699.53;5067602;28;20462;-79
2021/12/05 07:57:04;;;;;;;3.00;2.30;;;3.30;99.90;;;4.03;100.00;96706.47;5066620;28;20459;-79
2021/12/05 07:59:45;;;;;;;5.83;3.17;;;3.20;99.90;;;4.04;100.00;96708.09;5071882;28;20445;-79
2021/12/05 08:16:09;;;;;;;4.33;2.83;;;3.40;99.90;;;4.10;100.00;96722.88;5040669;28;20461;-78
2021/12/05 08:18:43;;;;;;;2.73;2.50;;;3.40;99.90;;;4.12;100.00;96731.28;5057420;28;20486;-78
2021/12/05 08:21:13;;;;;;;2.67;1.70;;;3.40;99.90;;;4.14;100.00;96729.31;5067360;28;20451;-78
2021/12/05 08:23:45;;;;;;;4.60;1.93;;;3.50;99.90;;;4.17;100.00;96728.94;5071597;28;20542;-79
2021/12/05 08:26:18;;;;;;;1.93;1.73;;;3.60;99.90;;;4.17;100.00;96734.13;5066683;28;20444;-79
2021/12/05 08:29:00;;;;;;;5.20;1.67;;;3.50;99.90;;;4.18;100.00;96729.75;5055739;28;20463;-79
2021/12/05 08:31:40;;;;;;;4.70;1.80;;;3.50;99.90;;;4.17;100.00;96734.13;5057867;28;21026;-79
2021/12/05 08:34:29;;;;;;;3.40;2.33;;;3.50;99.90;;;4.18;100.00;96727.97;5071535;28;20527;-79
2021/12/05 08:40:15;;;;;;;2.30;1.60;;;3.50;99.90;;;4.26;100.00;96733.06;5071544;28;20494;-78
2021/12/05 09:25:36;;;;;;;2.03;1.43;;;3.90;99.90;;;4.46;100.00;96751.41;5067280;28;20498;-78
2021/12/05 09:28:34;;;;;;;1.37;1.27;;;3.80;99.90;;;4.48;100.00;96758.00;5061236;28;20947;-78
2021/12/05 09:31:24;;;;;;;1.63;1.53;;;3.90;99.90;;;4.48;100.00;96760.59;5058666;28;21021;-83
2021/12/05 10:11:05;;;;;;;2.43;1.67;;;4.10;99.90;;;4.75;100.00;96794.56;5065640;28;20534;-82
2021/12/05 10:13:45;;;;;;;4.97;1.60;;;4.10;99.90;;;4.75;100.00;96792.78;5063374;28;20464;-82
2021/12/05 10:16:20;;;;;;;1.70;1.60;;;4.10;99.90;;;4.77;100.00;96792.59;5068705;28;20931;-81
2021/12/05 10:36:07;;;;;;;1.80;1.47;;;4.30;99.90;;;4.87;100.00;96777.56;5066248;28;20459;-81
2021/12/05 10:38:45;;;;;;;4.10;1.70;;;4.40;99.90;;;4.89;100.00;96785.97;5056487;28;20503;-81
2021/12/05 10:41:46;;;;;;;2.07;1.40;;;4.40;99.90;;;4.87;100.00;96780.16;5063810;28;20475;-81
2021/12/05 10:44:16;;;;;;;2.27;1.47;;;4.40;99.90;;;4.89;100.00;96775.59;5060752;28;20503;-82
2021/12/05 10:46:50;;;;;;;3.97;1.50;;;4.40;99.90;;;4.89;100.00;96775.59;5063033;28;20525;-81
2021/12/05 10:49:19;;;;;;;5.73;1.60;;;4.40;99.90;;;4.86;100.00;96770.81;5064817;28;20976;-81
2021/12/05 10:51:55;;;;;;;2.13;1.70;;;4.30;99.90;;;4.85;100.00;96771.78;5064528;28;20467;-80
2021/12/05 10:54:28;;;;;;;1.53;1.43;;;4.30;99.90;;;4.84;100.00;96768.38;5065183;28;20480;-80
2021/12/05 10:57:01;;;;;;;1.73;1.37;;;4.30;99.90;;;4.79;100.00;96770.69;5060342;28;20466;-80
2021/12/05 10:59:38;;;;;;;3.70;1.77;;;4.20;99.90;;;4.73;100.00;96766.25;5068950;28;20517;-80
2021/12/05 11:02:10;;;;;;;2.40;1.50;;;4.10;99.90;;;4.70;100.00;96768.41;5067354;28;20886;-81
2021/12/05 11:04:43;;;;;;;37.47;15.60;;;4.10;99.90;;;4.73;100.00;96770.63;5057606;28;20506;-77
2021/12/05 11:07:14;;;;;;;3.67;2.00;;;4.10;99.90;;;4.69;100.00;96764.19;5067917;28;20544;-79
2021/12/05 11:09:47;;;;;;;4.20;2.10;;;4.10;99.90;;;4.65;100.00;96770.75;5063091;28;20467;-79
2021/12/05 11:12:19;;;;;;;2.70;1.80;;;4.00;99.90;;;4.70;100.00;96765.81;5062508;28;20451;-79
2021/12/05 11:14:52;;;;;;;2.10;1.83;;;4.00;99.90;;;4.70;100.00;96768.41;5064710;28;20533;-79
2021/12/05 11:17:25;;;;;;;3.57;1.73;;;4.00;99.90;;;4.72;100.00;96764.66;5061489;28;20465;-79
2021/12/05 11:19:58;;;;;;;2.60;1.90;;;4.20;99.90;;;4.73;100.00;96771.44;5060785;28;21028;-79
2021/12/05 11:22:30;;;;;;;2.87;2.17;;;4.30;99.90;;;4.73;100.00;96768.03;5059734;28;20941;-79
2021/12/05 11:25:05;;;;;;;3.80;2.47;;;4.40;99.90;;;4.73;100.00;96770.63;5068267;28;20480;-79
2021/12/05 11:27:40;;;;;;;7.10;3.37;;;4.30;99.90;;;4.76;100.00;96771.06;5063892;28;20960;-79
2021/12/05 11:30:14;;;;;;;2.03;1.93;;;4.20;99.90;;;4.79;100.00;96769.91;5069231;28;21033;-79
2021/12/05 11:32:50;;;;;;;2.40;2.20;;;4.30;99.90;;;4.81;100.00;96773.13;5071916;28;20579;-79
2021/12/05 11:35:33;;;;;;;3.30;2.03;;;4.20;99.90;;;4.82;100.00;96777.31;5073022;28;20436;-80
2021/12/05 11:38:10;;;;;;;2.30;2.03;;;4.20;99.90;;;4.87;100.00;96777.56;5068267;28;20452;-79
2021/12/05 11:40:58;;;;;;;4.80;2.30;;;4.30;99.90;;;4.87;100.00;96780.97;5072507;28;20464;-79
2021/12/05 11:43:30;;;;;;;3.90;1.90;;;4.30;99.90;;;4.84;100.00;96778.75;5072879;28;20502;-79
2021/12/05 11:46:07;;;;;;;1.80;1.70;;;4.30;99.90;;;4.80;100.00;96776.69;5072889;28;20579;-80
2021/12/05 11:48:41;;;;;;;4.07;2.33;;;4.20;99.90;;;4.81;100.00;96773.13;5072965;28;21018;-79
2021/12/05 11:51:29;;;;;;;3.20;2.07;;;4.20;99.90;;;4.78;100.00;96770.91;5072387;28;20936;-79
2021/12/05 11:54:01;;;;;;;2.40;1.90;;;4.10;99.90;;;4.79;100.00;96769.91;5071676;28;20447;-79
2021/12/05 11:56:53;;;;;;;5.03;2.07;;;4.10;99.90;;;4.84;100.00;96772.75;5072093;28;20463;-79
2021/12/05 11:59:28;;;;;;;1.83;1.73;;;4.10;99.90;;;4.88;100.00;96769.63;5069012;28;20460;-79
2021/12/05 12:02:08;;;;;;;2.87;2.20;;;4.20;99.90;;;4.91;100.00;96771.03;5070373;28;20459;-79
2021/12/05 12:04:46;;;;;;;3.17;2.03;;;4.20;99.90;;;4.93;100.00;96764.69;5072051;28;20503;-79
2021/12/05 12:07:29;;;;;;;2.47;1.77;;;4.30;99.90;;;4.96;100.00;96768.72;5068678;28;20961;-79
2021/12/05 12:10:08;;;;;;;1.80;1.70;;;4.40;99.90;;;4.96;100.00;96771.31;5065760;28;20459;-79
2021/12/05 12:12:38;;;;;;;2.30;1.70;;;4.30;99.90;;;5.00;100.00;96772.53;5071474;28;20472;-79
2021/12/05 12:15:09;;;;;;;2.20;1.90;;;4.30;99.90;;;5.02;100.00;96768.78;5063237;28;20475;-80
2021/12/05 12:17:38;;;;;;;4.13;2.07;;;4.30;99.90;;;5.05;100.00;96762.41;5068099;28;20453;-79
2021/12/05 12:20:13;;;;;;;2.80;1.87;;;4.40;99.90;;;5.07;100.00;96768.22;5069222;28;20470;-79
2021/12/05 12:22:41;;;;;;;3.90;2.03;;;4.50;99.90;;;5.10;100.00;96775.63;5071119;28;20448;-79
2021/12/05 12:25:19;;;;;;;5.20;2.03;;;4.50;99.90;;;5.13;100.00;96771.88;5071196;28;20506;-79
2021/12/05 12:27:51;;;;;;;2.53;2.30;;;4.50;99.90;;;5.15;100.00;96764.69;5063084;28;21023;-79
2021/12/05 12:30:25;;;;;;;3.40;1.90;;;4.60;99.90;;;5.15;100.00;96765.50;5070101;28;20509;-79
2021/12/05 12:33:10;;;;;;;6.40;2.00;;;4.60;99.90;;;5.16;100.00;96767.13;5071169;28;20494;-79
2021/12/05 12:35:39;;;;;;;3.07;1.80;;;4.60;99.90;;;5.18;100.00;96761.75;5070610;28;20459;-79
2021/12/05 12:38:18;;;;;;;3.00;2.20;;;4.60;99.90;;;5.18;100.00;96772.91;5071034;28;20456;-80
2021/12/05 12:40:50;;;;;;;6.03;2.30;;;4.50;99.90;;;5.18;100.00;96759.94;5070850;28;20518;-79
2021/12/05 12:43:52;;;;;;;1.87;1.70;;;4.50;99.90;;;5.22;100.00;96756.00;5067767;28;20550;-80
2021/12/05 12:46:33;;;;;;;2.07;1.87;;;4.60;99.90;;;5.23;100.00;96762.81;5068543;28;20503;-79
2021/12/05 12:49:29;;;;;;;6.43;1.90;;;4.70;99.90;;;5.25;100.00;96758.22;5064069;28;20546;-79
2021/12/05 12:52:03;;;;;;;3.27;1.67;;;4.70;99.90;;;5.28;100.00;96752.66;5068466;28;20464;-79
2021/12/05 12:54:40;;;;;;;4.57;1.87;;;4.70;99.90;;;5.28;100.00;96759.63;5070246;28;20817;-79
2021/12/05 12:57:14;;;;;;;2.37;2.03;;;4.70;99.90;;;5.29;100.00;96758.66;5064979;28;20537;-79
2021/12/05 12:59:55;;;;;;;7.33;1.83;;;4.60;99.90;;;5.29;100.00;96759.47;5070958;28;20456;-79
2021/12/05 13:02:49;;;;;;;2.13;1.90;;;4.60;99.90;;;5.26;100.00;96765.03;5059685;28;20444;-79
2021/12/05 13:05:55;;;;;;;1.60;1.50;;;4.70;99.90;;;5.25;100.00;96760.81;5064466;28;20500;-79
2021/12/05 13:11:18;;;;;;;4.40;1.70;;;4.70;99.90;;;5.24;100.00;96766.97;5070123;28;20859;-79
2021/12/05 13:14:00;;;;;;;3.33;1.67;;;4.70;99.90;;;5.25;100.00;96775.56;5068548;28;20452;-79
2021/12/05 13:16:34;;;;;;;1.97;1.77;;;4.80;99.90;;;5.26;100.00;96770.19;5069244;28;20510;-79
2021/12/05 13:19:11;;;;;;;2.70;1.97;;;4.70;99.90;;;5.27;100.00;96774.41;5066042;28;20448;-78
2021/12/05 13:21:43;;;;;;;2.50;1.80;;;4.70;99.90;;;5.29;100.00;96784.56;5070649;28;20444;-79
2021/12/05 13:24:27;;;;;;;1.73;1.63;;;4.60;99.90;;;5.32;100.00;96782.41;5070747;28;20470;-79
2021/12/05 13:27:03;;;;;;;2.23;1.63;;;4.70;99.90;;;5.35;100.00;96774.25;5070713;28;20503;-79
2021/12/05 13:29:34;;;;;;;2.83;1.60;;;4.80;99.90;;;5.40;100.00;96776.31;5062772;28;20447;-79
2021/12/05 13:32:11;;;;;;;1.90;1.70;;;4.90;99.90;;;5.40;100.00;96769.34;5070758;28;20449;-79
2021/12/05 13:34:49;;;;;;;3.97;1.90;;;4.90;99.90;;;5.43;100.00;96773.34;5070939;28;20497;-79
2021/12/05 13:38:01;;;;;;;3.87;2.40;;;4.90;99.90;;;5.46;100.00;96776.38;5058313;28;20453;-79
2021/12/05 13:40:34;;;;;;;3.80;2.30;;;4.90;99.90;;;5.47;100.00;96777.97;5069007;28;20525;-79
2021/12/05 13:43:08;;;;;;;2.90;2.00;;;4.90;99.90;;;5.44;100.00;96773.16;5070598;28;20480;-79
2021/12/05 13:45:43;;;;;;;4.10;1.73;;;4.80;99.90;;;5.45;100.00;96782.53;5070342;28;20487;-79
2021/12/05 13:48:26;;;;;;;7.50;2.20;;;4.90;99.90;;;5.46;100.00;96780.75;5070310;28;20828;-79
2021/12/05 13:51:01;;;;;;;3.90;2.20;;;4.80;99.90;;;5.49;100.00;96788.16;5070075;28;20444;-79
2021/12/05 13:53:49;;;;;;;2.60;1.83;;;4.80;99.90;;;5.50;100.00;96793.16;5063370;28;20451;-79
2021/12/05 13:56:26;;;;;;;3.80;2.37;;;4.80;99.90;;;5.50;100.00;96785.38;5068873;28;20850;-79
2021/12/05 13:59:03;;;;;;;2.90;2.47;;;4.80;99.90;;;5.52;100.00;96791.16;5070511;28;20538;-79
2021/12/05 14:01:34;;;;;;;2.50;2.00;;;4.80;99.90;;;5.52;100.00;96792.94;5070120;28;20447;-79
2021/12/05 14:04:24;;;;;;;3.23;2.30;;;4.80;99.90;;;5.53;100.00;96794.56;5067886;28;20468;-80
2021/12/05 14:06:57;;;;;;;3.20;1.60;;;4.80;99.90;;;5.47;100.00;96801.31;5064524;28;20931;-81
2021/12/05 14:09:36;;;;;;;4.10;2.43;;;4.80;99.90;;;5.47;100.00;96806.50;5066698;28;20534;-80
2021/12/05 14:12:30;;;;;;;2.00;1.90;;;4.70;99.90;;;5.46;100.00;96812.66;5071624;28;20456;-80
2021/12/05 14:15:03;;;;;;;4.53;2.23;;;4.80;99.90;;;5.48;100.00;96808.06;5065006;28;20440;-80
2021/12/05 14:17:37;;;;;;;6.90;1.90;;;4.80;99.90;;;5.52;100.00;96811.91;5070376;28;20467;-80
2021/12/05 14:20:12;;;;;;;3.27;2.17;;;4.90;99.90;;;5.51;100.00;96818.09;5065485;28;20846;-79
2021/12/05 14:22:45;;;;;;;2.07;1.80;;;4.90;99.90;;;5.52;100.00;96824.06;5069508;28;20512;-79
2021/12/05 14:25:18;;;;;;;4.23;2.43;;;4.90;99.90;;;5.52;100.00;96824.88;5071191;28;20474;-80
2021/12/05 14:27:52;;;;;;;2.30;1.90;;;4.80;99.90;;;5.53;100.00;96823.09;5071312;28;20469;-79
2021/12/05 14:30:24;;;;;;;6.97;3.10;;;4.90;99.90;;;5.49;100.00;96829.63;5067337;28;20547;-79
2021/12/05 14:32:58;;;;;;;3.63;2.50;;;4.80;99.90;;;5.48;100.00;96831.41;5062672;28;20488;-78
2021/12/05 14:35:33;;;;;;;4.20;1.83;;;4.90;99.90;;;5.42;100.00;96829.56;5071892;28;20452;-78
2021/12/05 14:38:04;;;;;;;2.00;1.80;;;4.80;99.90;;;5.37;100.00;96842.28;5073340;28;20500;-78
2021/12/05 14:40:36;;;;;;;3.23;1.57;;;4.70;99.90;;;5.35;100.00;96836.47;5070431;28;20847;-78
2021/12/05 14:43:11;;;;;;;2.07;1.57;;;4.70;99.90;;;5.30;100.00;96845.78;5064125;28;20473;-78
2021/12/05 14:45:42;;;;;;;1.20;1.10;;;4.70;99.90;;;5.26;100.00;96854.91;5071912;28;20536;-78
2021/12/05 14:48:16;;;;;;;5.17;1.50;;;4.60;99.90;;;5.26;100.00;96853.13;5069038;28;20452;-79
2021/12/05 14:50:53;;;;;;;1.80;1.53;;;4.60;99.90;;;5.22;100.00;96857.06;5072979;28;20440;-79
2021/12/05 14:53:26;;;;;;;2.40;1.27;;;4.50;99.90;;;5.22;100.00;96861.44;5072453;28;20444;-79
2021/12/05 14:55:58;;;;;;;1.37;1.27;;;4.50;99.90;;;5.20;100.00;96861.63;5077229;28;20511;-79
2021/12/05 14:58:30;;;;;;;1.70;1.50;;;4.50;99.90;;;5.17;100.00;96862.00;5062082;28;20948;-79
2021/12/05 15:01:00;;;;;;;2.40;1.40;;;4.50;99.90;;;5.18;100.00;96866.19;5069436;28;20464;-79
2021/12/05 15:03:32;;;;;;;1.60;1.30;;;4.40;99.90;;;5.22;100.00;96871.81;5071640;28;20464;-79
2021/12/05 15:06:11;;;;;;;1.20;1.10;;;4.50;99.90;;;5.18;100.00;96884.31;5072852;28;20488;-79
2021/12/05 15:08:41;;;;;;;1.30;1.20;;;4.50;99.90;;;5.11;100.00;96886.03;5069231;28;20468;-79
2021/12/05 15:11:10;;;;;;;2.63;1.70;;;4.30;99.90;;;5.07;100.00;96890.78;5065430;28;20464;-79
2021/12/05 15:13:39;;;;;;;1.50;1.40;;;4.30;99.90;;;4.97;100.00;96894.63;5070581;28;20460;-79